createdAt,value
2023-04-26T00:02:07.685Z,88.79
2023-04-26T00:04:35.937Z,88.77
2023-04-26T00:07:04.075Z,88.74
2023-04-26T00:09:32.286Z,88.68
2023-04-26T00:12:00.298Z,88.58
2023-04-26T00:14:28.008Z,88.50
2023-04-26T00:16:56.454Z,88.51
2023-04-26T00:19:24.973Z,88.47
2023-04-26T00:21:52.697Z,88.43
2023-04-26T00:24:21.082Z,88.45
2023-04-26T00:26:48.899Z,88.41
2023-04-26T00:29:16.625Z,88.42
2023-04-26T00:31:44.463Z,88.36
2023-04-26T00:34:12.401Z,88.36
2023-04-26T00:36:40.225Z,88.36
2023-04-26T00:39:09.271Z,88.37
2023-04-26T00:41:37.036Z,88.40
2023-04-26T00:44:05.030Z,88.43
2023-04-26T00:46:32.884Z,88.46
2023-04-26T00:49:00.640Z,88.46
2023-04-26T00:51:28.582Z,88.46
2023-04-26T00:53:56.888Z,88.43
2023-04-26T00:56:25.497Z,88.40
2023-04-26T00:58:53.510Z,88.42
2023-04-26T01:01:22.714Z,88.39
2023-04-26T01:03:50.637Z,88.37
2023-04-26T01:06:18.591Z,88.39
2023-04-26T01:08:47.207Z,88.39
2023-04-26T01:11:15.193Z,88.38
2023-04-26T01:13:43.534Z,88.41
2023-04-26T01:16:12.233Z,88.41
2023-04-26T01:18:41.695Z,88.48
2023-04-26T01:21:11.491Z,88.48
2023-04-26T01:23:39.307Z,88.46
2023-04-26T01:26:07.024Z,88.45
2023-04-26T01:28:34.724Z,88.55
2023-04-26T01:31:05.168Z,88.53
2023-04-26T01:33:32.978Z,88.49
2023-04-26T01:36:00.769Z,88.52
2023-04-26T01:38:30.054Z,88.54
2023-04-26T01:40:57.864Z,88.54
2023-04-26T01:43:25.637Z,88.59
2023-04-26T01:45:53.463Z,88.62
2023-04-26T01:48:40.972Z,88.65
2023-04-26T01:51:08.711Z,88.73
2023-04-26T01:53:36.735Z,88.78
2023-04-26T01:56:05.985Z,88.81
2023-04-26T01:58:33.746Z,88.82
2023-04-26T02:01:07.116Z,88.87
2023-04-26T02:03:35.802Z,88.87
2023-04-26T02:06:04.241Z,88.84
2023-04-26T02:08:32.043Z,88.89
2023-04-26T02:10:59.912Z,88.85
2023-04-26T02:13:27.610Z,88.90
2023-04-26T02:15:55.867Z,89.05
2023-04-26T02:18:23.758Z,89.17
2023-04-26T02:20:51.702Z,89.12
2023-04-26T02:23:20.237Z,88.99
2023-04-26T02:25:49.091Z,88.96
2023-04-26T02:28:19.227Z,88.97
2023-04-26T02:30:46.961Z,89.03
2023-04-26T02:33:14.690Z,88.94
2023-04-26T02:35:42.736Z,88.90
2023-04-26T02:38:11.722Z,88.83
2023-04-26T02:40:39.525Z,88.84
2023-04-26T02:43:08.093Z,88.80
2023-04-26T02:45:42.029Z,88.72
2023-04-26T02:48:11.348Z,88.60
2023-04-26T02:50:39.361Z,88.53
2023-04-26T02:53:07.254Z,88.50
2023-04-26T02:55:34.996Z,88.44
2023-04-26T02:58:02.865Z,88.43
2023-04-26T03:00:30.834Z,88.40
2023-04-26T03:02:58.735Z,88.37
2023-04-26T03:05:26.514Z,88.44
2023-04-26T03:07:54.355Z,88.50
2023-04-26T03:10:22.063Z,88.43
2023-04-26T03:12:50.347Z,88.35
2023-04-26T03:15:18.420Z,88.29
2023-04-26T03:17:46.582Z,88.24
2023-04-26T03:20:15.416Z,88.15
2023-04-26T03:22:43.747Z,88.07
2023-04-26T03:25:11.805Z,87.97
2023-04-26T03:27:39.548Z,87.94
2023-04-26T03:30:08.369Z,87.89
2023-04-26T03:32:36.932Z,87.87
2023-04-26T03:35:05.477Z,87.82
2023-04-26T03:37:33.301Z,87.73
2023-04-26T03:40:08.432Z,87.65
2023-04-26T03:42:36.991Z,87.61
2023-04-26T03:45:05.571Z,87.57
2023-04-26T03:47:33.594Z,87.52
2023-04-26T03:50:01.658Z,87.46
2023-04-26T03:52:29.370Z,87.36
2023-04-26T03:54:57.623Z,87.23
2023-04-26T03:57:25.716Z,87.08
2023-04-26T03:59:53.723Z,86.92
2023-04-26T04:02:21.928Z,86.85
2023-04-26T04:04:50.246Z,86.82
2023-04-26T04:07:19.121Z,86.85
2023-04-26T04:09:46.984Z,86.86
2023-04-26T04:12:15.356Z,86.93
2023-04-26T04:14:44.087Z,87.01
2023-04-26T04:17:12.100Z,87.09
2023-04-26T04:19:40.220Z,87.13
2023-04-26T04:22:08.357Z,87.08
2023-04-26T04:24:37.466Z,87.21
2023-04-26T04:27:05.251Z,87.31
2023-04-26T04:29:33.780Z,87.37
2023-04-26T04:32:02.162Z,87.13
2023-04-26T04:34:30.288Z,87.11
2023-04-26T04:36:58.146Z,87.12
2023-04-26T04:39:26.068Z,86.99
2023-04-26T04:41:54.475Z,86.75
2023-04-26T04:44:24.084Z,86.53
2023-04-26T04:46:53.330Z,86.37
2023-04-26T04:49:21.359Z,86.22
2023-04-26T04:51:49.412Z,85.94
2023-04-26T04:54:18.643Z,85.86
2023-04-26T04:56:48.504Z,85.66
2023-04-26T04:59:17.269Z,85.50
2023-04-26T05:01:45.329Z,85.25
2023-04-26T05:04:15.706Z,85.32
2023-04-26T05:06:44.535Z,85.36
2023-04-26T05:09:13.233Z,85.09
2023-04-26T05:11:41.807Z,84.81
2023-04-26T05:14:11.415Z,84.57
2023-04-26T05:16:39.272Z,84.22
2023-04-26T05:19:09.385Z,83.96
2023-04-26T05:21:37.934Z,84.00
2023-04-26T05:24:07.126Z,83.83
2023-04-26T05:26:36.781Z,83.50
2023-04-26T05:29:31.144Z,83.15
2023-04-26T05:31:59.027Z,82.92
2023-04-26T05:34:53.012Z,82.70
2023-04-26T05:37:21.246Z,82.60
2023-04-26T05:39:49.454Z,82.42
2023-04-26T05:42:18.281Z,82.16
2023-04-26T05:44:46.455Z,81.95
2023-04-26T05:47:14.473Z,81.68
2023-04-26T05:49:42.515Z,81.56
2023-04-26T05:52:10.275Z,81.23
2023-04-26T05:54:38.095Z,80.83
2023-04-26T05:57:06.156Z,80.74
2023-04-26T05:59:37.251Z,80.70
2023-04-26T06:02:05.484Z,80.54
2023-04-26T06:04:33.556Z,80.30
2023-04-26T06:07:05.416Z,80.22
2023-04-26T06:09:33.365Z,80.13
2023-04-26T06:12:01.785Z,79.92
2023-04-26T06:14:30.984Z,79.60
2023-04-26T06:17:02.303Z,79.07
2023-04-26T06:19:30.204Z,78.76
2023-04-26T06:21:57.964Z,78.33
2023-04-26T06:24:26.102Z,78.20
2023-04-26T06:26:53.975Z,77.87
2023-04-26T06:29:21.953Z,77.12
2023-04-26T06:31:49.880Z,77.03
2023-04-26T06:37:47.253Z,76.80
2023-04-26T06:40:15.984Z,76.45
2023-04-26T06:42:44.052Z,76.25
2023-04-26T06:45:24.373Z,75.79
2023-04-26T06:47:53.342Z,74.77
2023-04-26T06:50:24.268Z,74.67
2023-04-26T06:52:52.165Z,74.83
2023-04-26T06:55:20.713Z,73.96
2023-04-26T06:57:50.620Z,73.27
2023-04-26T07:00:19.030Z,72.72
2023-04-26T07:02:46.900Z,72.45
2023-04-26T07:05:15.532Z,71.42
2023-04-26T07:07:43.483Z,71.32
2023-04-26T07:10:11.252Z,71.12
2023-04-26T07:12:39.060Z,71.12
2023-04-26T07:15:07.615Z,70.89
2023-04-26T07:17:35.352Z,71.09
2023-04-26T07:20:04.154Z,71.29
2023-04-26T07:22:31.953Z,70.90
2023-04-26T07:24:59.670Z,70.15
2023-04-26T07:27:27.440Z,70.50
2023-04-26T07:29:56.360Z,70.19
2023-04-26T07:32:24.269Z,69.42
2023-04-26T07:34:52.037Z,69.44
2023-04-26T07:37:19.767Z,69.51
2023-04-26T07:39:47.684Z,69.41
2023-04-26T07:42:15.523Z,69.60
2023-04-26T07:44:43.264Z,68.27
2023-04-26T07:47:14.506Z,67.92
2023-04-26T07:49:42.791Z,68.01
2023-04-26T07:52:10.557Z,68.10
2023-04-26T07:54:40.047Z,67.81
2023-04-26T07:57:07.678Z,67.39
2023-04-26T07:59:35.406Z,66.92
2023-04-26T08:02:03.285Z,66.36
2023-04-26T08:04:34.518Z,66.22
2023-04-26T08:07:02.751Z,66.26
2023-04-26T08:09:30.850Z,66.19
2023-04-26T08:11:58.943Z,65.87
2023-04-26T08:14:27.209Z,65.57
2023-04-26T08:16:54.943Z,65.49
2023-04-26T08:19:23.186Z,65.01
2023-04-26T08:21:51.043Z,64.59
2023-04-26T08:24:18.804Z,64.80
2023-04-26T08:26:46.613Z,65.29
2023-04-26T08:29:15.031Z,65.37
2023-04-26T08:31:42.857Z,64.93
2023-04-26T08:34:11.680Z,64.23
2023-04-26T08:36:42.856Z,64.41
2023-04-26T08:39:12.285Z,64.59
2023-04-26T08:41:43.605Z,65.37
2023-04-26T08:44:11.838Z,65.24
2023-04-26T08:46:48.069Z,64.52
2023-04-26T08:49:36.090Z,62.52
2023-04-26T08:52:04.837Z,62.30
2023-04-26T08:54:32.962Z,62.90
2023-04-26T08:57:01.941Z,63.30
2023-04-26T08:59:31.306Z,62.12
2023-04-26T09:02:01.375Z,61.44
2023-04-26T09:04:29.461Z,60.27
2023-04-26T09:07:01.893Z,59.67
2023-04-26T09:09:38.062Z,59.80
2023-04-26T09:12:06.176Z,58.90
2023-04-26T09:14:34.456Z,57.89
2023-04-26T09:17:02.286Z,57.24
2023-04-26T09:19:42.716Z,57.11
2023-04-26T09:22:11.013Z,57.63
2023-04-26T09:24:50.363Z,56.86
2023-04-26T09:27:19.176Z,56.12
2023-04-26T09:30:10.647Z,56.57
2023-04-26T09:32:44.629Z,55.97
2023-04-26T09:35:39.894Z,55.16
2023-04-26T09:38:13.514Z,55.39
2023-04-26T09:40:46.897Z,55.99
2023-04-26T09:43:16.733Z,56.03
2023-04-26T09:45:50.182Z,55.36
2023-04-26T09:48:23.355Z,52.90
2023-04-26T09:50:53.245Z,50.50
2023-04-26T09:53:27.720Z,50.76
2023-04-26T09:55:56.573Z,52.04
2023-04-26T09:58:24.525Z,52.35
2023-04-26T10:00:53.177Z,53.04
2023-04-26T10:03:21.316Z,51.64
2023-04-26T10:05:49.424Z,50.85
2023-04-26T10:08:17.252Z,49.90
2023-04-26T10:10:47.852Z,49.07
2023-04-26T10:13:16.886Z,47.68
2023-04-26T10:15:45.132Z,45.55
2023-04-26T10:18:13.146Z,45.26
2023-04-26T10:20:44.946Z,45.22
2023-04-26T10:23:25.494Z,45.45
2023-04-26T10:25:55.584Z,45.68
2023-04-26T10:28:50.844Z,46.56
2023-04-26T10:31:21.353Z,44.75
2023-04-26T10:34:18.960Z,44.66
2023-04-26T10:37:17.245Z,44.38
2023-04-26T10:39:46.885Z,44.26
2023-04-26T10:42:24.084Z,44.91
2023-04-26T10:44:56.611Z,46.15
2023-04-26T10:47:37.418Z,46.34
2023-04-26T10:50:09.870Z,45.68
2023-04-26T10:53:05.591Z,45.71
2023-04-26T10:55:42.978Z,46.59
2023-04-26T10:58:31.626Z,45.97
2023-04-26T11:01:08.515Z,45.45
2023-04-26T11:03:37.189Z,44.25
2023-04-26T11:06:09.899Z,44.35
2023-04-26T11:08:37.748Z,44.99
2023-04-26T11:11:13.512Z,45.29
2023-04-26T11:13:43.119Z,45.66
2023-04-26T11:16:13.691Z,45.85
2023-04-26T11:18:44.515Z,45.31
2023-04-26T11:21:17.567Z,45.34
2023-04-26T11:23:55.307Z,45.61
2023-04-26T11:26:24.743Z,46.34
2023-04-26T11:28:52.659Z,47.44
2023-04-26T11:31:21.299Z,47.53
2023-04-26T11:39:22.707Z,44.95
2023-04-26T11:41:50.725Z,45.30
2023-04-26T11:44:21.169Z,44.67
2023-04-26T11:46:49.332Z,43.55
2023-04-26T11:49:17.645Z,43.14
2023-04-26T11:51:49.753Z,42.53
2023-04-26T11:54:37.851Z,42.56
2023-04-26T11:57:17.229Z,42.91
2023-04-26T11:59:46.287Z,42.64
2023-04-26T12:02:14.357Z,41.61
2023-04-26T12:04:44.214Z,41.92
2023-04-26T12:07:12.143Z,41.80
2023-04-26T12:09:44.645Z,42.91
2023-04-26T12:12:12.546Z,43.20
2023-04-26T12:14:40.869Z,43.77
2023-04-26T12:17:10.362Z,44.25
2023-04-26T12:19:39.022Z,44.70
2023-04-26T12:22:08.468Z,45.21
2023-04-26T12:24:37.505Z,45.71
2023-04-26T12:27:07.306Z,45.91
2023-04-26T12:29:35.678Z,45.87
2023-04-26T12:32:04.381Z,46.17
2023-04-26T12:34:33.043Z,46.72
2023-04-26T12:37:01.117Z,46.60
2023-04-26T12:39:28.924Z,47.00
2023-04-26T12:41:57.045Z,46.64
2023-04-26T12:44:25.074Z,46.37
2023-04-26T12:46:52.839Z,46.42
2023-04-26T12:49:20.615Z,46.66
2023-04-26T12:51:48.328Z,46.37
2023-04-26T12:54:16.285Z,46.48
2023-04-26T12:56:45.027Z,47.04
2023-04-26T12:59:12.912Z,47.21
2023-04-26T13:01:41.276Z,47.41
2023-04-26T13:04:10.208Z,47.70
2023-04-26T13:06:38.229Z,48.04
2023-04-26T13:09:08.273Z,48.32
2023-04-26T13:11:36.310Z,47.96
2023-04-26T13:14:04.443Z,47.43
2023-04-26T13:16:33.469Z,47.27
2023-04-26T13:19:01.443Z,46.43
2023-04-26T13:21:29.446Z,45.38
2023-04-26T13:23:57.291Z,44.78
2023-04-26T13:26:27.097Z,44.39
2023-04-26T13:28:55.933Z,43.37
2023-04-26T13:31:23.877Z,42.98
2023-04-26T13:33:51.743Z,42.59
2023-04-26T13:36:19.611Z,43.24
2023-04-26T13:38:47.640Z,43.38
2023-04-26T13:41:15.505Z,44.11
2023-04-26T13:43:43.312Z,44.66
2023-04-26T13:46:11.260Z,44.53
2023-04-26T13:48:39.102Z,44.63
2023-04-26T13:51:07.252Z,44.50
2023-04-26T13:53:35.094Z,44.10
2023-04-26T13:56:02.975Z,43.81
2023-04-26T13:58:30.717Z,43.63
2023-04-26T14:00:58.465Z,43.44
2023-04-26T14:03:27.134Z,43.65
2023-04-26T14:05:56.643Z,43.92
2023-04-26T14:08:24.512Z,43.49
2023-04-26T14:10:53.027Z,44.00
2023-04-26T14:13:21.555Z,44.16
2023-04-26T14:15:49.558Z,43.80
2023-04-26T14:18:17.780Z,43.71
2023-04-26T14:20:46.757Z,44.07
2023-04-26T14:23:14.546Z,44.70
2023-04-26T14:25:42.533Z,45.21
2023-04-26T14:28:10.488Z,45.85
2023-04-26T14:30:38.464Z,46.23
2023-04-26T14:33:06.247Z,46.81
2023-04-26T14:35:34.018Z,47.03
2023-04-26T14:38:01.784Z,46.77
2023-04-26T14:40:30.219Z,47.11
2023-04-26T14:42:58.012Z,47.21
2023-04-26T14:45:37.024Z,47.34
2023-04-26T14:48:12.504Z,47.32
2023-04-26T14:50:40.707Z,47.28
2023-04-26T14:53:09.758Z,47.40
2023-04-26T14:55:37.733Z,47.81
2023-04-26T14:58:05.779Z,47.98
2023-04-26T15:00:33.840Z,48.16
2023-04-26T15:03:01.971Z,47.81
2023-04-26T15:05:29.890Z,47.73
2023-04-26T15:07:57.800Z,47.59
2023-04-26T15:10:25.779Z,47.95
2023-04-26T15:12:53.625Z,48.05
2023-04-26T15:15:21.572Z,48.41
2023-04-26T15:17:49.482Z,48.86
2023-04-26T15:20:18.751Z,48.77
2023-04-26T15:22:46.709Z,48.60
2023-04-26T15:25:14.545Z,48.85
2023-04-26T15:27:42.519Z,48.61
2023-04-26T15:30:10.938Z,48.27
2023-04-26T15:32:38.845Z,48.30
2023-04-26T15:35:07.953Z,48.41
2023-04-26T15:37:36.823Z,48.52
2023-04-26T15:40:06.218Z,48.83
2023-04-26T15:42:33.929Z,49.11
2023-04-26T15:45:02.507Z,49.42
2023-04-26T15:47:30.463Z,49.63
2023-04-26T15:50:03.720Z,49.88
2023-04-26T15:52:38.543Z,49.59
2023-04-26T15:55:08.619Z,49.94
2023-04-26T15:57:36.773Z,50.06
2023-04-26T16:00:09.082Z,50.12
2023-04-26T16:02:37.117Z,50.23
2023-04-26T16:05:07.236Z,50.33
2023-04-26T16:07:35.357Z,50.31
2023-04-26T16:10:03.902Z,50.20
2023-04-26T16:12:31.965Z,50.43
2023-04-26T16:14:59.761Z,50.45
2023-04-26T16:17:27.584Z,50.70
2023-04-26T16:19:55.894Z,50.79
2023-04-26T16:22:23.729Z,50.90
2023-04-26T16:24:51.543Z,50.91
2023-04-26T16:27:22.592Z,50.94
2023-04-26T16:29:50.365Z,51.20
2023-04-26T16:32:18.214Z,51.44
2023-04-26T16:34:46.085Z,51.62
2023-04-26T16:37:14.833Z,51.65
2023-04-26T16:39:42.632Z,51.54
2023-04-26T16:42:10.620Z,51.55
2023-04-26T16:44:38.461Z,52.29
2023-04-26T16:47:06.807Z,52.11
2023-04-26T16:49:34.812Z,51.98
2023-04-26T16:52:02.578Z,52.23
2023-04-26T16:54:30.352Z,52.34
2023-04-26T16:56:58.366Z,52.37
2023-04-26T16:59:26.234Z,52.32
2023-04-26T17:01:54.614Z,52.49
2023-04-26T17:04:22.633Z,52.60
2023-04-26T17:06:50.859Z,52.67
2023-04-26T17:09:18.748Z,52.77
2023-04-26T17:11:46.936Z,52.75
2023-04-26T17:14:15.601Z,53.04
2023-04-26T17:16:43.524Z,52.84
2023-04-26T17:19:11.695Z,53.10
2023-04-26T17:21:39.455Z,53.25
2023-04-26T17:24:08.865Z,53.18
2023-04-26T17:26:36.962Z,53.16
2023-04-26T17:29:04.928Z,53.36
2023-04-26T17:31:32.942Z,53.38
2023-04-26T17:34:03.296Z,53.57
2023-04-26T17:36:32.475Z,54.12
2023-04-26T17:39:00.646Z,54.08
2023-04-26T17:41:28.480Z,54.02
2023-04-26T17:43:56.294Z,54.19
2023-04-26T17:46:24.132Z,54.11
2023-04-26T17:48:52.206Z,54.39
2023-04-26T17:51:20.022Z,54.52
2023-04-26T17:53:47.795Z,54.81
2023-04-26T17:56:15.573Z,54.49
2023-04-26T17:58:43.496Z,55.47
2023-04-26T18:01:11.525Z,55.98
2023-04-26T18:03:39.663Z,55.96
2023-04-26T18:06:07.624Z,56.11
2023-04-26T18:08:35.492Z,56.30
2023-04-26T18:11:03.265Z,56.58
2023-04-26T18:13:31.599Z,56.73
2023-04-26T18:15:59.432Z,57.03
2023-04-26T18:18:29.637Z,56.75
2023-04-26T18:20:57.800Z,56.88
2023-04-26T18:23:25.785Z,57.12
2023-04-26T18:25:53.539Z,57.22
2023-04-26T18:28:22.077Z,57.27
2023-04-26T18:30:49.841Z,57.79
2023-04-26T18:33:17.844Z,57.68
2023-04-26T18:35:49.069Z,57.73
2023-04-26T18:38:17.719Z,57.95
2023-04-26T18:40:49.786Z,57.99
2023-04-26T18:43:17.937Z,58.28
2023-04-26T18:45:45.964Z,58.41
2023-04-26T18:48:13.782Z,58.68
2023-04-26T18:50:48.983Z,58.99
2023-04-26T18:53:17.556Z,59.30
2023-04-26T18:55:45.415Z,60.07
2023-04-26T18:58:13.390Z,60.34
2023-04-26T19:00:41.230Z,60.42
2023-04-26T19:03:09.194Z,60.80
2023-04-26T19:05:41.301Z,61.16
2023-04-26T19:08:09.682Z,61.27
2023-04-26T19:10:37.791Z,61.24
2023-04-26T19:13:05.850Z,61.19
2023-04-26T19:15:33.553Z,61.76
2023-04-26T19:18:01.581Z,62.31
2023-04-26T19:20:29.544Z,62.36
2023-04-26T19:22:57.297Z,62.88
2023-04-26T19:25:26.758Z,62.61
2023-04-26T19:27:54.586Z,63.31
2023-04-26T19:30:22.352Z,63.05
2023-04-26T19:32:51.070Z,63.29
2023-04-26T19:35:19.059Z,63.60
2023-04-26T19:37:46.892Z,64.02
2023-04-26T19:40:14.968Z,64.10
2023-04-26T19:42:42.753Z,64.25
2023-04-26T19:45:11.016Z,64.54
2023-04-26T19:47:41.736Z,64.92
2023-04-26T19:50:10.186Z,64.71
2023-04-26T19:52:37.917Z,64.72
2023-04-26T19:55:05.852Z,65.03
2023-04-26T19:57:33.814Z,65.01
2023-04-26T20:00:01.761Z,65.16
2023-04-26T20:02:35.051Z,65.10
2023-04-26T20:05:03.369Z,65.13
2023-04-26T20:07:31.802Z,65.31
2023-04-26T20:09:59.847Z,65.35
2023-04-26T20:12:27.630Z,65.66
2023-04-26T20:14:55.439Z,65.78
2023-04-26T20:17:23.289Z,65.87
2023-04-26T20:19:51.728Z,65.97
2023-04-26T20:22:19.457Z,65.98
2023-04-26T20:24:47.383Z,65.97
2023-04-26T20:27:15.120Z,66.04
2023-04-26T20:29:42.863Z,66.09
2023-04-26T20:32:10.658Z,66.17
2023-04-26T20:34:38.672Z,66.38
2023-04-26T20:37:06.456Z,66.57
2023-04-26T20:39:34.194Z,66.83
2023-04-26T20:42:02.357Z,66.91
2023-04-26T20:44:30.115Z,67.04
2023-04-26T20:46:57.970Z,67.16
2023-04-26T20:49:25.757Z,67.25
2023-04-26T20:51:54.620Z,67.38
2023-04-26T20:54:22.425Z,67.48
2023-04-26T20:56:50.237Z,67.71
2023-04-26T20:59:18.034Z,67.95
2023-04-26T21:01:46.043Z,68.08
2023-04-26T21:04:14.000Z,68.25
2023-04-26T21:06:41.842Z,68.46
2023-04-26T21:09:09.828Z,68.64
2023-04-26T21:11:37.780Z,68.92
2023-04-26T21:14:06.850Z,69.03
2023-04-26T21:16:35.597Z,69.13
2023-04-26T21:19:03.567Z,69.36
2023-04-26T21:21:32.556Z,69.50
2023-04-26T21:24:00.951Z,69.67
2023-04-26T21:26:28.777Z,69.82
2023-04-26T21:28:56.576Z,70.00
2023-04-26T21:31:24.414Z,69.94
2023-04-26T21:33:53.360Z,70.01
2023-04-26T21:39:06.713Z,70.43
2023-04-26T21:41:34.525Z,70.39
2023-04-26T21:44:02.206Z,70.24
2023-04-26T21:46:30.212Z,70.39
2023-04-26T21:48:58.248Z,70.54
2023-04-26T21:51:25.973Z,70.69
2023-04-26T21:53:53.782Z,70.95
2023-04-26T21:56:21.785Z,71.05
2023-04-26T21:58:49.535Z,71.12
2023-04-26T22:01:17.511Z,71.31
2023-04-26T22:03:45.599Z,71.40
2023-04-26T22:06:13.465Z,71.44
2023-04-26T22:08:41.379Z,71.38
2023-04-26T22:11:09.229Z,71.13
2023-04-26T22:13:37.024Z,71.33
2023-04-26T22:16:05.156Z,71.38
2023-04-26T22:18:33.004Z,71.40
2023-04-26T22:21:01.052Z,71.48
2023-04-26T22:23:28.886Z,71.73
2023-04-26T22:25:58.192Z,71.83
2023-04-26T22:28:26.771Z,71.90
2023-04-26T22:30:54.559Z,72.07
2023-04-26T22:33:22.389Z,72.28
2023-04-26T22:35:50.187Z,72.43
2023-04-26T22:38:18.025Z,72.48
2023-04-26T22:40:45.818Z,72.49
2023-04-26T22:43:13.514Z,72.56
2023-04-26T22:45:41.354Z,72.55
2023-04-26T22:48:09.148Z,72.60
2023-04-26T22:50:36.961Z,72.65
2023-04-26T22:53:04.763Z,72.62
2023-04-26T22:55:32.607Z,72.89
2023-04-26T22:58:00.504Z,73.08
2023-04-26T23:00:28.299Z,73.14
2023-04-26T23:02:56.191Z,73.18
2023-04-26T23:05:24.093Z,73.30
2023-04-26T23:07:52.453Z,73.34
2023-04-26T23:10:20.473Z,73.44
2023-04-26T23:12:50.116Z,73.55
2023-04-26T23:15:18.674Z,73.59
2023-04-26T23:17:47.067Z,73.66
2023-04-26T23:20:15.925Z,73.69
2023-04-26T23:22:44.033Z,73.78
2023-04-26T23:25:11.899Z,73.76
2023-04-26T23:27:39.916Z,73.70
2023-04-26T23:30:08.389Z,73.84
2023-04-26T23:32:36.873Z,74.05
2023-04-26T23:35:05.571Z,74.16
2023-04-26T23:37:33.412Z,74.41
2023-04-26T23:40:01.489Z,74.63
2023-04-26T23:42:29.346Z,74.67
2023-04-26T23:44:57.059Z,74.50
2023-04-26T23:47:25.510Z,74.71
2023-04-26T23:49:53.435Z,74.83
2023-04-26T23:52:21.272Z,74.87
2023-04-26T23:54:49.098Z,74.88
2023-04-26T23:57:16.993Z,75.03
2023-04-26T23:59:44.796Z,75.06
